Time;durP1;ratioP1;P1;durP2;ratioP2;P2;SDS_P1;SDS_P2;PMS_P1;PMS_P2;Temp;Humidity;BMP_temperature;BMP_pressure;BME280_temperature;BME280_humidity;BME280_pressure;Samples;Min_cycle;Max_cycle;Signal;HPM_P1;HPM_P2
2021/04/26 00:01:16;;;;;;;4.33;1.10;;;;;;;-2.42;80.81;101714.72;4961754;28;20050;-86
2021/04/26 00:03:42;;;;;;;1.50;0.70;;;;;;;-2.51;80.98;101715.16;4960519;28;20069;-86
2021/04/26 00:06:09;;;;;;;1.30;0.80;;;;;;;-2.45;80.65;101717.13;4961900;28;20050;-85
2021/04/26 00:08:35;;;;;;;2.50;0.80;;;;;;;-2.57;80.81;101709.66;4966814;28;20137;-85
2021/04/26 00:11:02;;;;;;;1.40;0.97;;;;;;;-2.57;80.72;101701.91;4960788;28;20042;-84
2021/04/26 00:13:28;;;;;;;2.93;0.70;;;;;;;-2.56;80.62;101711.44;4961142;28;20153;-86
2021/04/26 00:15:55;;;;;;;1.83;1.20;;;;;;;-2.68;81.61;101706.56;4961571;28;20038;-86
2021/04/26 00:18:21;;;;;;;0.63;0.63;;;;;;;-2.70;81.38;101705.56;4993717;28;20069;-86
2021/04/26 00:20:47;;;;;;;1.53;0.73;;;;;;;-2.72;80.50;101703.72;4961851;28;20062;-86
2021/04/26 00:23:14;;;;;;;1.63;1.00;;;;;;;-2.80;81.63;101697.28;4977034;28;20038;-85
2021/04/26 00:25:40;;;;;;;1.60;0.90;;;;;;;-2.69;80.95;101696.09;4960898;28;20124;-85
2021/04/26 00:28:07;;;;;;;1.93;1.00;;;;;;;-2.81;81.51;101685.16;4977386;28;20613;-85
2021/04/26 00:30:33;;;;;;;1.43;0.87;;;;;;;-2.78;81.54;101693.94;4975698;28;20038;-86
2021/04/26 00:33:01;;;;;;;1.37;0.80;;;;;;;-2.81;81.33;101695.50;4957000;28;20039;-86
2021/04/26 00:35:29;;;;;;;1.37;0.83;;;;;;;-2.79;80.66;101691.28;4961024;28;20057;-85
2021/04/26 00:37:56;;;;;;;1.73;1.17;;;;;;;-2.87;81.87;101677.97;4960762;28;20039;-85
2021/04/26 00:40:23;;;;;;;1.97;0.80;;;;;;;-2.81;81.95;101682.59;4958724;28;20046;-86
2021/04/26 00:42:51;;;;;;;1.90;0.90;;;;;;;-2.86;82.25;101683.25;4960233;28;20046;-86
2021/04/26 00:45:20;;;;;;;1.17;1.00;;;;;;;-2.90;81.99;101681.31;4960075;28;20097;-86
2021/04/26 00:47:47;;;;;;;1.53;0.93;;;;;;;-2.98;82.47;101682.63;4960384;28;20049;-86
2021/04/26 00:50:36;;;;;;;2.20;1.10;;;;;;;-3.02;82.85;101682.41;4959902;28;20054;-87
2021/04/26 00:53:03;;;;;;;1.50;1.30;;;;;;;-3.04;83.56;101682.31;4973637;28;20038;-87
2021/04/26 00:55:34;;;;;;;2.43;1.00;;;;;;;-3.01;83.11;101679.00;4959656;28;20092;-86
2021/04/26 00:58:02;;;;;;;1.10;0.70;;;;;;;-3.08;83.48;101674.34;4992120;28;20057;-87
2021/04/26 01:00:29;;;;;;;3.33;1.10;;;;;;;-2.94;82.62;101675.94;4959956;28;20042;-86
2021/04/26 01:02:56;;;;;;;2.50;1.13;;;;;;;-3.00;83.60;101668.75;4958674;28;20047;-85
2021/04/26 01:05:25;;;;;;;0.93;0.83;;;;;;;-3.06;83.34;101670.13;4994085;23;20275;-81
2021/04/26 01:07:51;;;;;;;1.07;0.80;;;;;;;-3.05;83.83;101662.44;4992685;28;20042;-81
2021/04/26 01:10:21;;;;;;;3.37;1.07;;;;;;;-3.00;84.10;101665.28;5008607;28;20041;-81
2021/04/26 01:13:12;;;;;;;3.33;1.10;;;;;;;-3.06;84.41;101654.63;5004003;28;20050;-83
2021/04/26 01:16:00;;;;;;;1.00;0.80;;;;;;;-3.21;84.11;101653.03;5015513;28;20056;-83
2021/04/26 01:18:34;;;;;;;1.90;0.97;;;;;;;-3.22;83.59;101653.84;5019688;28;20543;-82
2021/04/26 01:21:37;;;;;;;1.05;0.90;;;;;;;-3.32;84.03;101659.34;5004354;28;20407;-81
2021/04/26 01:24:12;;;;;;;1.00;0.70;;;;;;;-3.35;84.32;101651.44;5012205;28;20100;-81
2021/04/26 01:26:41;;;;;;;2.47;1.00;;;;;;;-3.40;84.41;101651.19;5010826;28;20034;-82
2021/04/26 01:29:20;;;;;;;2.30;1.20;;;;;;;-3.37;83.63;101652.16;4996032;28;20044;-82
2021/04/26 01:31:55;;;;;;;2.20;1.17;;;;;;;-3.36;83.25;101646.19;4976054;28;20045;-81
2021/04/26 01:34:34;;;;;;;2.07;0.90;;;;;;;-3.31;84.08;101640.44;4992098;28;20100;-82
2021/04/26 01:37:01;;;;;;;1.30;0.90;;;;;;;-3.40;84.30;101642.56;4993460;28;20034;-81
2021/04/26 01:39:27;;;;;;;1.37;0.80;;;;;;;-3.51;84.28;101639.44;4977040;28;20112;-81
2021/04/26 01:41:54;;;;;;;1.47;1.00;;;;;;;-3.50;83.83;101638.63;4977342;28;20049;-83
2021/04/26 01:44:21;;;;;;;1.87;0.90;;;;;;;-3.59;83.51;101639.84;4971742;28;20045;-81
2021/04/26 01:46:47;;;;;;;1.33;0.87;;;;;;;-3.61;83.69;101637.19;4990009;28;20034;-81
2021/04/26 01:49:13;;;;;;;1.53;0.90;;;;;;;-3.62;83.45;101637.09;4991909;28;20041;-81
2021/04/26 01:51:41;;;;;;;1.37;0.93;;;;;;;-3.65;83.20;101645.56;4979161;28;20045;-78
2021/04/26 01:54:07;;;;;;;3.53;0.80;;;;;;;-3.69;83.51;101643.66;4985059;28;20414;-82
2021/04/26 01:56:35;;;;;;;0.83;0.70;;;;;;;-3.73;83.08;101641.69;5016915;28;20057;-81
2021/04/26 01:59:03;;;;;;;2.30;0.90;;;;;;;-3.78;83.24;101638.00;4990602;28;20041;-82
2021/04/26 02:01:29;;;;;;;1.13;0.80;;;;;;;-3.73;83.88;101629.66;4976447;28;20046;-81
2021/04/26 02:03:57;;;;;;;1.67;0.90;;;;;;;-3.77;83.69;101624.28;4976184;28;20108;-81
2021/04/26 02:06:24;;;;;;;4.07;0.90;;;;;;;-3.78;84.09;101627.66;4990277;28;20049;-82
2021/04/26 02:08:51;;;;;;;1.07;0.80;;;;;;;-3.79;84.60;101623.28;5000480;28;20419;-82
2021/04/26 02:11:18;;;;;;;1.13;0.80;;;;;;;-3.84;84.05;101617.91;4998693;28;20054;-81
2021/04/26 02:13:44;;;;;;;2.73;1.00;;;;;;;-3.91;84.52;101623.53;5000510;28;20049;-82
2021/04/26 02:16:10;;;;;;;0.80;0.80;;;;;;;-3.97;84.58;101618.94;4974688;28;20451;-82
2021/04/26 02:18:36;;;;;;;1.30;0.70;;;;;;;-3.94;84.06;101614.75;4989530;28;20045;-82
2021/04/26 02:21:03;;;;;;;3.10;0.90;;;;;;;-3.90;83.67;101608.94;4975928;28;20206;-81
2021/04/26 02:23:30;;;;;;;2.17;0.83;;;;;;;-3.76;84.13;101605.41;4996805;28;20044;-82
2021/04/26 02:25:57;;;;;;;1.50;1.00;;;;;;;-3.85;84.38;101604.91;5000836;28;20060;-81
2021/04/26 02:28:23;;;;;;;1.47;1.00;;;;;;;-3.85;84.00;101597.16;5013817;28;20458;-81
2021/04/26 02:30:54;;;;;;;1.63;0.80;;;;;;;-3.81;84.48;101602.56;4998328;28;20034;-82
2021/04/26 02:33:25;;;;;;;2.37;0.93;;;;;;;-3.90;84.06;101601.19;5012266;28;20046;-82
2021/04/26 02:35:59;;;;;;;2.17;0.80;;;;;;;-4.04;83.82;101596.19;4987262;28;20172;-81
2021/04/26 02:38:37;;;;;;;1.95;0.90;;;;;;;-4.05;84.29;101603.84;4997611;28;20169;-80
2021/04/26 02:41:13;;;;;;;1.37;0.70;;;;;;;-4.15;84.61;101604.16;4994376;28;20038;-81
2021/04/26 02:43:50;;;;;;;2.17;0.77;;;;;;;-4.15;84.15;101609.31;5024413;28;20045;-81
2021/04/26 02:46:21;;;;;;;1.47;0.80;;;;;;;-4.19;84.48;101607.41;5013097;28;20041;-81
2021/04/26 02:48:47;;;;;;;2.50;0.90;;;;;;;-4.17;83.87;101606.66;4993379;28;20077;-81
2021/04/26 02:51:14;;;;;;;1.20;0.83;;;;;;;-4.20;84.41;101603.00;4997775;28;20049;-81
2021/04/26 02:53:40;;;;;;;2.00;0.90;;;;;;;-4.20;84.69;101609.09;4980241;28;20042;-81
2021/04/26 02:56:08;;;;;;;1.20;0.80;;;;;;;-4.30;84.39;101609.38;5020379;28;20577;-80
2021/04/26 02:58:36;;;;;;;2.83;1.50;;;;;;;-4.35;84.74;101610.84;5019467;28;20038;-81
2021/04/26 03:01:09;;;;;;;1.20;0.70;;;;;;;-4.39;84.81;101614.03;4998135;28;20089;-81
2021/04/26 03:03:37;;;;;;;1.60;0.70;;;;;;;-4.42;84.68;101598.41;5015330;28;20045;-81
2021/04/26 03:06:04;;;;;;;2.97;0.80;;;;;;;-4.40;84.80;101609.69;4999162;28;20561;-82
2021/04/26 03:08:33;;;;;;;0.80;0.80;;;;;;;-4.41;84.56;101608.78;4983314;28;20049;-81
2021/04/26 03:10:59;;;;;;;3.50;1.20;;;;;;;-4.38;84.84;101605.50;4984142;28;20088;-81
2021/04/26 03:13:27;;;;;;;1.57;0.80;;;;;;;-4.47;84.66;101607.56;4999597;28;20052;-81
2021/04/26 03:15:54;;;;;;;1.13;0.80;;;;;;;-4.38;85.39;101605.50;4995898;28;20217;-81
2021/04/26 03:18:20;;;;;;;1.97;0.80;;;;;;;-4.47;85.54;101607.56;4980614;28;20046;-82
2021/04/26 03:20:46;;;;;;;1.13;0.73;;;;;;;-4.51;86.24;101605.63;4978981;28;20105;-81
2021/04/26 03:23:18;;;;;;;1.03;0.80;;;;;;;-4.47;85.79;101602.41;4996891;28;20042;-81
2021/04/26 03:25:44;;;;;;;1.67;0.80;;;;;;;-4.36;85.92;101607.38;4995681;28;20072;-80
2021/04/26 03:28:12;;;;;;;3.20;0.90;;;;;;;-4.44;86.10;101603.47;4995833;28;20046;-82
2021/04/26 03:30:38;;;;;;;1.20;0.93;;;;;;;-4.50;86.44;101604.81;4991664;28;20058;-81
2021/04/26 03:33:05;;;;;;;1.90;1.07;;;;;;;-4.54;86.10;101604.66;4996254;28;20052;-81
2021/04/26 03:35:32;;;;;;;0.70;0.60;;;;;;;-4.60;86.13;101609.47;4994926;28;20037;-82
2021/04/26 03:37:58;;;;;;;1.10;0.70;;;;;;;-4.63;86.48;101609.28;4996203;28;20081;-80
2021/04/26 03:40:26;;;;;;;1.47;0.87;;;;;;;-4.63;87.10;101606.72;5013732;28;20053;-82
2021/04/26 03:42:53;;;;;;;1.73;0.80;;;;;;;-4.62;86.50;101598.19;4995203;28;20046;-79
2021/04/26 03:45:20;;;;;;;2.20;1.00;;;;;;;-4.62;86.81;101598.19;5004205;28;20064;-81
2021/04/26 03:47:46;;;;;;;2.43;1.00;;;;;;;-4.63;86.66;101603.25;5013401;28;20053;-82
2021/04/26 03:50:14;;;;;;;1.10;0.80;;;;;;;-4.70;86.79;101601.16;4998112;28;20053;-81
2021/04/26 03:52:41;;;;;;;1.37;0.97;;;;;;;-4.74;86.99;101596.63;4997555;28;20045;-81
2021/04/26 03:55:09;;;;;;;1.40;0.80;;;;;;;-4.74;87.71;101610.38;5013449;28;20565;-81
2021/04/26 03:57:35;;;;;;;1.03;0.70;;;;;;;-4.71;87.50;101605.41;4995191;28;20046;-80
2021/04/26 04:00:03;;;;;;;2.47;0.87;;;;;;;-4.66;87.10;101608.25;4975289;28;20066;-81
2021/04/26 04:02:29;;;;;;;4.23;1.00;;;;;;;-4.63;87.40;101611.88;4995000;28;20458;-80
2021/04/26 04:04:56;;;;;;;1.80;1.03;;;;;;;-4.62;87.29;101615.38;4992340;28;20458;-80
2021/04/26 04:07:22;;;;;;;1.67;0.90;;;;;;;-4.58;86.77;101612.13;4995358;28;20108;-80
2021/04/26 04:09:49;;;;;;;1.20;0.90;;;;;;;-4.56;86.71;101614.00;4978565;28;20037;-80
2021/04/26 04:12:15;;;;;;;1.50;1.10;;;;;;;-4.60;86.43;101606.00;4978982;28;20053;-81
2021/04/26 04:14:42;;;;;;;1.53;0.90;;;;;;;-4.64;86.95;101610.09;4975162;28;20503;-80
2021/04/26 04:17:08;;;;;;;1.33;1.00;;;;;;;-4.65;87.11;101607.44;4980803;28;20038;-80
2021/04/26 04:19:34;;;;;;;1.50;1.00;;;;;;;-4.68;87.73;101605.59;4995027;28;20137;-80
2021/04/26 04:22:00;;;;;;;2.37;0.90;;;;;;;-4.63;88.99;101595.50;4995079;28;20593;-81
2021/04/26 04:24:26;;;;;;;1.73;1.10;;;;;;;-4.55;90.01;101596.81;4993976;28;20523;-81
2021/04/26 04:26:53;;;;;;;3.60;1.40;;;;;;;-4.50;90.09;101602.25;4994719;28;20123;-81
2021/04/26 04:29:19;;;;;;;3.30;1.10;;;;;;;-4.46;89.05;101609.34;4986590;28;20054;-81
2021/04/26 04:31:45;;;;;;;1.87;1.10;;;;;;;-4.42;88.18;101598.41;4980018;28;20054;-81
2021/04/26 04:34:11;;;;;;;2.70;1.17;;;;;;;-4.44;88.45;101594.84;5012681;28;20034;-81
2021/04/26 04:36:37;;;;;;;1.07;0.90;;;;;;;-4.39;88.07;101593.41;5010113;28;20140;-81
2021/04/26 04:39:04;;;;;;;2.57;1.10;;;;;;;-4.37;87.74;101602.09;4976631;28;20042;-82
2021/04/26 04:41:30;;;;;;;2.10;1.30;;;;;;;-4.31;88.49;101605.03;4969567;28;20042;-80
2021/04/26 04:43:56;;;;;;;1.80;1.30;;;;;;;-4.27;88.74;101604.41;4996223;28;20042;-82
2021/04/26 04:46:23;;;;;;;2.63;1.47;;;;;;;-4.30;88.48;101604.22;4993799;28;20045;-81
2021/04/26 04:48:50;;;;;;;3.97;1.60;;;;;;;-4.28;88.93;101607.78;5010229;28;20499;-82
2021/04/26 04:51:16;;;;;;;3.60;1.83;;;;;;;-4.17;89.55;101604.09;4995898;28;20499;-82
2021/04/26 04:53:42;;;;;;;3.03;1.33;;;;;;;-4.11;89.51;101611.28;4989835;28;20054;-82
2021/04/26 04:56:08;;;;;;;2.30;1.10;;;;;;;-4.06;90.12;101610.69;5008466;28;20046;-82
2021/04/26 04:58:34;;;;;;;1.73;1.20;;;;;;;-4.10;90.59;101610.47;4993645;28;20042;-82
2021/04/26 05:01:00;;;;;;;3.70;1.33;;;;;;;-4.06;89.98;101614.97;4993010;28;20046;-82
2021/04/26 05:03:27;;;;;;;2.80;1.00;;;;;;;-3.88;88.43;101610.78;4994063;28;20053;-82
2021/04/26 05:05:53;;;;;;;1.60;1.10;;;;;;;-3.84;89.01;101604.09;5009702;28;20088;-82
2021/04/26 05:08:19;;;;;;;2.13;1.10;;;;;;;-3.88;89.23;101612.47;5010565;28;20398;-81
2021/04/26 05:10:45;;;;;;;1.97;1.37;;;;;;;-3.83;89.12;101616.19;5009709;28;20446;-81
2021/04/26 05:13:12;;;;;;;1.93;1.03;;;;;;;-3.83;89.55;101614.50;4994018;28;20454;-80
2021/04/26 05:15:39;;;;;;;1.67;0.93;;;;;;;-3.83;90.07;101606.75;4993699;28;20057;-82
2021/04/26 05:18:06;;;;;;;3.17;1.33;;;;;;;-3.81;89.95;101602.56;4977770;28;20495;-82
2021/04/26 05:20:34;;;;;;;1.63;1.20;;;;;;;-3.69;90.56;101594.59;4993311;28;20038;-82
2021/04/26 05:23:01;;;;;;;2.90;1.37;;;;;;;-3.70;90.88;101600.53;4971620;28;20068;-80
2021/04/26 05:25:28;;;;;;;2.17;1.30;;;;;;;-3.61;91.18;101603.63;5001766;28;20479;-81
2021/04/26 05:27:54;;;;;;;4.57;2.33;;;;;;;-3.37;90.75;101605.66;4989511;28;20800;-80
2021/04/26 05:30:20;;;;;;;2.07;1.47;;;;;;;-3.22;89.54;101603.84;4992106;28;20050;-80
2021/04/26 05:32:47;;;;;;;3.10;2.20;;;;;;;-2.98;88.82;101607.66;4994001;28;20088;-81
2021/04/26 05:35:13;;;;;;;9.13;5.57;;;;;;;-2.91;87.65;101601.09;4991087;28;20034;-80
2021/04/26 05:37:40;;;;;;;6.73;4.23;;;;;;;-2.81;89.05;101603.31;4994078;28;20037;-81
2021/04/26 05:40:06;;;;;;;6.17;3.57;;;;;;;-2.91;89.40;101603.66;5010286;28;20045;-81
2021/04/26 05:42:33;;;;;;;5.37;2.80;;;;;;;-2.71;90.27;101602.03;5012603;28;20053;-81
2021/04/26 05:44:59;;;;;;;4.57;2.63;;;;;;;-2.73;90.35;101604.56;4987439;28;20114;-81
2021/04/26 05:47:25;;;;;;;3.57;2.23;;;;;;;-2.67;91.37;101599.69;4977515;28;20045;-81
2021/04/26 05:49:51;;;;;;;3.27;1.60;;;;;;;-2.63;92.68;101601.59;5007834;28;20529;-81
2021/04/26 05:52:17;;;;;;;3.87;2.00;;;;;;;-2.13;90.89;101599.59;4994965;28;20045;-82
2021/04/26 05:54:43;;;;;;;5.80;2.20;;;;;;;-1.36;87.36;101596.09;5008542;28;20410;-81
2021/04/26 05:57:10;;;;;;;4.13;2.03;;;;;;;-1.06;85.28;101593.91;4993062;28;20079;-82
2021/04/26 05:59:37;;;;;;;3.67;2.10;;;;;;;-1.09;84.83;101593.78;4989340;28;20093;-81
2021/04/26 06:02:03;;;;;;;3.27;2.30;;;;;;;-1.06;84.38;101589.63;5002354;28;20058;-79
2021/04/26 06:04:29;;;;;;;3.23;1.40;;;;;;;-1.13;84.87;101591.06;4982129;28;20399;-81
2021/04/26 06:06:55;;;;;;;3.10;1.63;;;;;;;-1.20;84.66;101595.94;4991350;28;20116;-80
2021/04/26 06:09:21;;;;;;;4.33;1.60;;;;;;;-1.13;85.59;101598.84;4976713;28;20667;-81
2021/04/26 06:11:48;;;;;;;2.50;1.30;;;;;;;-1.16;85.92;101588.34;4976562;28;20133;-82
2021/04/26 06:14:14;;;;;;;4.00;1.80;;;;;;;-1.09;85.70;101594.69;4989308;28;20057;-82
2021/04/26 06:16:40;;;;;;;3.07;1.20;;;;;;;-0.99;85.94;101590.75;4975238;28;20100;-81
2021/04/26 06:19:07;;;;;;;3.00;1.20;;;;;;;-0.65;85.53;101591.28;4986871;28;20104;-81
2021/04/26 06:21:33;;;;;;;3.80;1.17;;;;;;;1.19;80.16;101590.13;4997773;28;20065;-82
2021/04/26 06:24:00;;;;;;;1.73;1.00;;;;;;;3.33;71.14;101582.25;4992218;28;20057;-81
2021/04/26 06:26:26;;;;;;;2.60;1.00;;;;;;;5.12;62.88;101574.50;4977916;28;20046;-81
2021/04/26 06:28:52;;;;;;;1.07;0.80;;;;;;;6.78;58.14;101568.84;4988793;28;20460;-80
2021/04/26 06:31:18;;;;;;;3.10;0.83;;;;;;;8.13;53.81;101568.00;4976655;28;20038;-82
2021/04/26 06:33:44;;;;;;;1.57;0.90;;;;;;;8.65;50.77;101563.81;4978522;28;20187;-80
2021/04/26 06:36:11;;;;;;;1.83;0.80;;;;;;;9.46;49.80;101557.69;4978647;28;20535;-82
2021/04/26 06:38:40;;;;;;;1.17;0.90;;;;;;;9.89;51.29;101553.16;4998613;28;20136;-79
2021/04/26 06:41:06;;;;;;;2.13;0.90;;;;;;;9.99;47.87;101552.25;5013817;28;20100;-79
2021/04/26 06:43:33;;;;;;;3.30;1.40;;;;;;;9.87;48.86;101552.31;4990975;28;20121;-80
2021/04/26 06:45:59;;;;;;;1.00;0.70;;;;;;;9.90;49.97;101548.75;4993237;28;20145;-79
2021/04/26 06:48:25;;;;;;;2.83;0.98;;;;;;;9.68;48.70;101540.94;4993204;28;20069;-80
2021/04/26 06:50:54;;;;;;;4.87;1.13;;;;;;;9.32;51.61;101555.91;4975715;28;20510;-80
2021/04/26 06:53:20;;;;;;;3.77;1.40;;;;;;;8.65;52.94;101549.75;5009863;28;20052;-80
2021/04/26 06:55:47;;;;;;;3.43;1.13;;;;;;;8.33;52.88;101553.19;4992427;28;20065;-79
2021/04/26 06:58:17;;;;;;;3.50;1.00;;;;;;;7.63;55.24;101552.84;4980671;28;20049;-80
2021/04/26 07:00:43;;;;;;;3.63;1.40;;;;;;;7.51;56.63;101548.41;4974880;28;20054;-79
2021/04/26 07:03:09;;;;;;;3.40;1.20;;;;;;;7.27;56.85;101540.34;5003529;28;20100;-79
2021/04/26 07:05:35;;;;;;;3.17;1.57;;;;;;;7.34;57.75;101543.03;4992518;28;20109;-80
2021/04/26 07:08:02;;;;;;;2.60;1.50;;;;;;;7.53;57.86;101548.41;5101740;23;20517;-83
2021/04/26 07:10:28;;;;;;;3.03;1.23;;;;;;;7.38;58.65;101543.03;4994942;28;20057;-81
2021/04/26 07:12:54;;;;;;;3.70;1.70;;;;;;;7.66;58.11;101537.09;4998417;28;20038;-82
2021/04/26 07:15:21;;;;;;;5.43;1.57;;;;;;;7.85;56.46;101548.59;4996012;28;20068;-82
2021/04/26 07:17:47;;;;;;;3.10;1.20;;;;;;;7.75;54.72;101544.16;5022360;28;20042;-79
2021/04/26 07:20:14;;;;;;;3.07;1.30;;;;;;;7.71;53.02;101542.38;4991046;28;20038;-82
2021/04/26 07:22:40;;;;;;;2.73;1.00;;;;;;;7.52;52.15;101537.00;5007632;28;20066;-80
2021/04/26 07:25:07;;;;;;;1.90;1.40;;;;;;;7.52;54.68;101547.53;5010207;28;20038;-81
2021/04/26 07:27:33;;;;;;;2.57;0.93;;;;;;;7.29;51.43;101544.75;4992390;28;20042;-82
2021/04/26 07:29:59;;;;;;;3.30;1.03;;;;;;;7.51;50.87;101539.63;4998834;28;20044;-83
2021/04/26 07:32:26;;;;;;;3.33;1.03;;;;;;;7.90;48.90;101538.94;5013343;28;20712;-81
2021/04/26 07:34:55;;;;;;;1.17;0.70;;;;;;;7.85;46.15;101538.06;5026723;28;20095;-81
2021/04/26 07:37:22;;;;;;;2.97;1.27;;;;;;;7.69;49.55;101537.13;5006302;28;20045;-82
2021/04/26 07:39:48;;;;;;;5.83;1.30;;;;;;;7.86;47.35;101532.81;5004798;28;20107;-82
2021/04/26 07:42:14;;;;;;;2.30;1.10;;;;;;;8.27;48.30;101540.00;5007351;28;20590;-81
2021/04/26 07:44:40;;;;;;;2.00;1.30;;;;;;;8.61;48.29;101534.84;5006234;28;20034;-79
2021/04/26 07:47:07;;;;;;;1.63;0.80;;;;;;;8.67;46.09;101541.00;5006462;28;20058;-81
2021/04/26 07:49:33;;;;;;;2.03;0.90;;;;;;;8.81;42.54;101535.72;5019674;28;20809;-81
2021/04/26 07:51:59;;;;;;;2.13;0.87;;;;;;;8.91;41.99;101536.59;4985782;28;20045;-80
2021/04/26 07:54:26;;;;;;;3.07;0.80;;;;;;;8.98;41.85;101527.81;5010503;28;20046;-82
2021/04/26 07:56:52;;;;;;;1.63;0.80;;;;;;;8.62;38.17;101524.28;4993192;28;20042;-82
2021/04/26 07:59:21;;;;;;;1.80;0.90;;;;;;;8.74;40.40;101526.06;5012011;28;20037;-79
2021/04/26 08:01:47;;;;;;;1.63;0.90;;;;;;;8.85;38.14;101524.31;5026382;28;20033;-79
2021/04/26 08:04:14;;;;;;;3.78;0.90;;;;;;;9.00;38.79;101520.81;5001799;28;20058;-79
2021/04/26 08:06:40;;;;;;;1.08;0.82;;;;;;;9.04;38.06;101522.56;5013698;28;20776;-80
2021/04/26 08:09:07;;;;;;;1.52;0.77;;;;;;;9.17;37.50;101516.41;5022201;28;20056;-82
2021/04/26 08:11:34;;;;;;;1.35;0.85;;;;;;;8.91;36.01;101507.63;4993474;28;20499;-80
2021/04/26 08:14:00;;;;;;;0.70;0.70;;;;;;;8.82;38.53;101507.63;5017646;28;20050;-81
2021/04/26 08:16:26;;;;;;;3.00;0.70;;;;;;;8.93;36.91;101500.59;4992652;28;20042;-81
2021/04/26 08:18:53;;;;;;;2.30;1.00;;;;;;;9.33;37.97;101498.78;5031925;28;20103;-81
2021/04/26 08:21:19;;;;;;;0.80;0.80;;;;;;;9.48;38.48;101495.25;5013883;28;20076;-82
2021/04/26 08:23:45;;;;;;;2.65;0.90;;;;;;;9.27;37.73;101504.97;4996719;28;20037;-81
2021/04/26 08:26:11;;;;;;;2.28;1.08;;;;;;;9.28;37.59;101497.94;4995343;28;20095;-82
2021/04/26 08:28:38;;;;;;;1.35;1.08;;;;;;;8.98;36.73;101504.97;4989082;28;20052;-81
2021/04/26 08:31:08;;;;;;;2.95;0.93;;;;;;;8.51;35.46;101504.09;4992049;28;20045;-82
2021/04/26 08:33:35;;;;;;;2.67;1.00;;;;;;;8.24;37.68;101520.66;5009449;28;20049;-80
2021/04/26 08:36:03;;;;;;;1.38;0.63;;;;;;;8.17;38.69;101517.16;4996821;28;20061;-81
2021/04/26 08:38:29;;;;;;;0.97;0.70;;;;;;;8.47;36.06;101513.72;5027718;28;20487;-81
2021/04/26 08:40:56;;;;;;;2.03;0.80;;;;;;;8.54;36.16;101512.88;5024767;28;20033;-81
2021/04/26 08:43:22;;;;;;;1.27;0.97;;;;;;;8.55;36.84;101521.66;4987830;28;20467;-80
2021/04/26 08:45:49;;;;;;;1.23;0.90;;;;;;;8.54;35.35;101520.78;5005189;28;20045;-81
2021/04/26 08:48:19;;;;;;;1.00;0.70;;;;;;;8.67;36.76;101509.38;4996574;28;20049;-82
2021/04/26 08:50:45;;;;;;;0.97;0.40;;;;;;;8.64;35.03;101511.13;5028904;28;20067;-81
2021/04/26 08:53:11;;;;;;;1.95;0.70;;;;;;;8.78;32.34;101506.75;4987263;28;20050;-81
2021/04/26 08:55:39;;;;;;;1.63;0.60;;;;;;;9.42;34.42;101493.50;5023979;28;20597;-81
2021/04/26 08:58:05;;;;;;;1.98;0.75;;;;;;;9.87;32.24;101491.59;5016034;28;20041;-83
2021/04/26 09:00:32;;;;;;;1.95;0.60;;;;;;;9.32;32.04;101487.34;5008193;28;20053;-82
2021/04/26 09:03:00;;;;;;;1.75;0.80;;;;;;;9.20;34.35;101502.34;5019250;28;20041;-81
2021/04/26 09:05:33;;;;;;;2.03;1.08;;;;;;;8.83;33.45;101507.63;5016639;28;20057;-81
2021/04/26 09:08:01;;;;;;;1.13;0.70;;;;;;;8.42;34.66;101507.59;5019059;28;20037;-81
2021/04/26 09:10:37;;;;;;;2.35;1.02;;;;;;;8.36;35.88;101511.09;5009628;28;20115;-81
2021/04/26 09:13:39;;;;;;;2.73;1.17;;;;;;;8.40;34.54;101504.06;5025335;28;20038;-81
2021/04/26 09:16:10;;;;;;;4.47;3.13;;;;;;;8.79;34.37;101512.91;5009336;28;20460;-81
2021/04/26 09:18:44;;;;;;;2.22;1.55;;;;;;;9.16;33.13;101504.09;5025429;28;20096;-82
2021/04/26 09:21:34;;;;;;;6.07;4.40;;;;;;;9.67;33.24;101490.78;5005399;28;20045;-81
2021/04/26 09:24:27;;;;;;;1.52;1.15;;;;;;;10.21;30.99;101494.06;5021103;28;20507;-82
2021/04/26 09:27:14;;;;;;;2.17;1.20;;;;;;;10.67;31.92;101489.38;5010827;28;20088;-82
2021/04/26 09:29:41;;;;;;;1.15;0.82;;;;;;;9.76;30.39;101488.13;5002513;28;20422;-82
2021/04/26 09:32:12;;;;;;;1.42;0.95;;;;;;;9.84;31.52;101497.78;5002243;28;20061;-81
2021/04/26 09:34:47;;;;;;;1.13;0.80;;;;;;;8.76;31.91;101495.34;4994738;28;20076;-82
2021/04/26 09:37:22;;;;;;;1.48;0.90;;;;;;;8.76;34.43;101487.44;5002764;28;20037;-82
2021/04/26 09:40:15;;;;;;;0.73;0.60;;;;;;;8.59;34.98;101500.59;5004596;28;20045;-82
2021/04/26 09:43:02;;;;;;;7.82;1.35;;;;;;;8.38;34.70;101496.16;5021949;28;20038;-82
2021/04/26 09:45:36;;;;;;;1.70;0.90;;;;;;;8.16;33.27;101500.47;4988141;28;20125;-81
2021/04/26 09:48:13;;;;;;;;;;;;;;;7.62;35.11;101502.00;4988787;28;20054;-81
2021/04/26 09:50:55;;;;;;;2.93;1.13;;;;;;;8.42;33.81;101487.41;5016738;28;19922;-82
2021/04/26 09:53:32;;;;;;;1.40;0.80;;;;;;;9.22;33.81;101471.56;5007349;28;20567;-81
2021/04/26 09:56:16;;;;;;;1.75;1.50;;;;;;;10.02;34.47;101470.41;4994140;28;20037;-81
2021/04/26 09:58:44;;;;;;;0.70;0.63;;;;;;;10.71;31.85;101467.34;5009274;28;20048;-81
2021/04/26 10:01:15;;;;;;;1.20;0.98;;;;;;;11.12;29.41;101460.81;4987764;28;20136;-81
2021/04/26 10:03:42;;;;;;;1.23;0.70;;;;;;;10.62;27.73;101451.56;4980771;28;20046;-81
2021/04/26 10:06:17;;;;;;;1.77;0.80;;;;;;;9.76;28.98;101459.09;5009279;28;20037;-82
2021/04/26 10:08:45;;;;;;;;;;;;;;;9.93;30.10;101462.53;4999156;28;20099;-82
2021/04/26 10:11:13;;;;;;;1.25;0.90;;;;;;;9.35;29.90;101457.47;4985949;28;19932;-82
2021/04/26 10:13:40;;;;;;;1.58;0.90;;;;;;;8.37;31.07;101462.81;4993822;28;20132;-80
2021/04/26 10:16:11;;;;;;;1.20;0.77;;;;;;;8.21;32.48;101461.00;4994068;28;20053;-81
2021/04/26 10:18:41;;;;;;;1.90;0.93;;;;;;;8.15;34.54;101464.47;4992783;28;20046;-81
2021/04/26 10:21:18;;;;;;;0.93;0.80;;;;;;;8.14;34.96;101460.09;5019696;28;20044;-81
2021/04/26 10:23:50;;;;;;;1.57;0.93;;;;;;;8.12;34.81;101455.72;5023151;28;20120;-81
2021/04/26 10:26:52;;;;;;;1.97;0.90;;;;;;;8.60;34.28;101454.06;4991301;28;20065;-81
2021/04/26 10:29:32;;;;;;;2.00;0.70;;;;;;;9.36;36.68;101442.53;4990256;28;20127;-81
2021/04/26 10:32:07;;;;;;;1.70;0.75;;;;;;;9.32;30.92;101445.16;5003431;28;20046;-80
2021/04/26 10:34:41;;;;;;;0.70;0.70;;;;;;;10.04;32.20;101433.44;5003725;28;20091;-81
2021/04/26 10:37:15;;;;;;;1.45;0.70;;;;;;;10.56;30.61;101428.69;4997622;28;20503;-80
2021/04/26 10:39:55;;;;;;;1.10;0.90;;;;;;;10.98;28.25;101421.25;5023049;28;20045;-81
2021/04/26 10:42:33;;;;;;;1.00;0.90;;;;;;;10.53;29.34;101420.81;5017715;28;20651;-81
2021/04/26 10:45:00;;;;;;;1.40;0.70;;;;;;;10.82;29.80;101432.88;5007591;28;20038;-81
2021/04/26 10:47:34;;;;;;;36.50;4.10;;;;;;;10.77;29.36;101427.66;4987465;28;20045;-80
2021/04/26 10:50:01;;;;;;;1.67;0.88;;;;;;;11.19;30.64;101420.19;5016991;28;20041;-80
2021/04/26 10:52:28;;;;;;;1.58;0.80;;;;;;;11.67;29.28;101408.13;5020587;28;20044;-81
2021/04/26 10:54:55;;;;;;;1.30;0.80;;;;;;;11.90;29.40;101406.97;5028115;28;20552;-80
2021/04/26 10:57:40;;;;;;;1.38;0.80;;;;;;;11.92;29.32;101419.28;5013251;28;20042;-81
2021/04/26 11:00:31;;;;;;;0.98;0.73;;;;;;;11.39;29.18;101407.59;5015510;28;20036;-81
2021/04/26 11:03:07;;;;;;;2.20;0.80;;;;;;;11.24;29.68;101413.06;5026000;28;20161;-80
2021/04/26 11:05:38;;;;;;;1.52;0.80;;;;;;;10.45;29.98;101409.41;5013106;28;20087;-81
2021/04/26 11:10:44;;;;;;;1.55;0.80;;;;;;;10.49;31.07;101413.78;5022776;28;20076;-81
2021/04/26 11:13:29;;;;;;;1.45;0.90;;;;;;;10.29;30.65;101413.94;5012018;28;20033;-81
2021/04/26 11:16:02;;;;;;;1.15;0.60;;;;;;;10.48;33.20;101411.16;5036614;28;20049;-81
2021/04/26 11:18:29;;;;;;;5.23;1.30;;;;;;;10.62;31.74;101418.09;5020970;28;20515;-82
2021/04/26 11:20:56;;;;;;;1.42;1.00;;;;;;;10.64;31.10;101408.38;5015459;28;20348;-84
2021/04/26 11:23:45;;;;;;;2.40;0.75;;;;;;;10.69;29.97;101405.69;5008631;28;20099;-83
2021/04/26 11:26:13;;;;;;;1.40;0.80;;;;;;;10.49;30.26;101405.84;5021873;28;20045;-84
2021/04/26 11:29:02;;;;;;;1.40;0.73;;;;;;;10.53;30.86;101399.66;4996821;28;20090;-84
2021/04/26 11:31:40;;;;;;;1.38;0.98;;;;;;;10.56;32.78;101401.41;5006245;28;20038;-82
2021/04/26 11:34:11;;;;;;;2.10;1.10;;;;;;;10.55;29.82;101399.66;5006388;28;20044;-84
2021/04/26 11:36:38;;;;;;;3.28;1.00;;;;;;;10.63;30.75;101397.81;5002751;28;20092;-82
2021/04/26 11:39:07;;;;;;;1.55;0.88;;;;;;;10.69;31.59;101385.44;4988718;28;20038;-84
2021/04/26 11:41:44;;;;;;;2.40;0.90;;;;;;;10.34;29.90;101384.84;4988349;28;20049;-83